sensor_id;sensor_type;location;lat;lon;timestamp;P1;durP1;ratioP1;P2;durP2;ratioP2
35909;SDS011;22004;49.120;-0.200;2024-01-16T00:01:14;23.77;;;13.02;;
35909;SDS011;22004;49.120;-0.200;2024-01-16T00:03:39;23.58;;;13.52;;
35909;SDS011;22004;49.120;-0.200;2024-01-16T00:06:05;29.02;;;13.50;;
35909;SDS011;22004;49.120;-0.200;2024-01-16T00:08:31;27.13;;;14.07;;
35909;SDS011;22004;49.120;-0.200;2024-01-16T00:10:57;28.35;;;13.35;;
35909;SDS011;22004;49.120;-0.200;2024-01-16T00:13:22;24.80;;;14.65;;
35909;SDS011;22004;49.120;-0.200;2024-01-16T00:15:47;28.40;;;13.80;;
35909;SDS011;22004;49.120;-0.200;2024-01-16T00:18:14;25.38;;;14.32;;
35909;SDS011;22004;49.120;-0.200;2024-01-16T00:20:40;23.15;;;13.57;;
35909;SDS011;22004;49.120;-0.200;2024-01-16T00:23:05;26.70;;;14.85;;
35909;SDS011;22004;49.120;-0.200;2024-01-16T00:25:30;21.65;;;13.80;;
35909;SDS011;22004;49.120;-0.200;2024-01-16T00:27:56;24.70;;;14.25;;
35909;SDS011;22004;49.120;-0.200;2024-01-16T00:30:21;28.23;;;14.80;;
35909;SDS011;22004;49.120;-0.200;2024-01-16T00:32:46;28.60;;;15.40;;
35909;SDS011;22004;49.120;-0.200;2024-01-16T00:35:12;30.42;;;15.45;;
35909;SDS011;22004;49.120;-0.200;2024-01-16T00:37:37;22.95;;;14.45;;
35909;SDS011;22004;49.120;-0.200;2024-01-16T00:40:03;26.85;;;14.95;;
35909;SDS011;22004;49.120;-0.200;2024-01-16T00:42:34;24.90;;;14.30;;
35909;SDS011;22004;49.120;-0.200;2024-01-16T00:44:59;23.55;;;14.02;;
35909;SDS011;22004;49.120;-0.200;2024-01-16T00:47:25;26.80;;;14.93;;
35909;SDS011;22004;49.120;-0.200;2024-01-16T00:49:50;23.83;;;14.00;;
35909;SDS011;22004;49.120;-0.200;2024-01-16T00:52:16;23.63;;;14.60;;
35909;SDS011;22004;49.120;-0.200;2024-01-16T00:54:42;27.25;;;15.32;;
35909;SDS011;22004;49.120;-0.200;2024-01-16T00:57:08;24.25;;;14.13;;
35909;SDS011;22004;49.120;-0.200;2024-01-16T00:59:33;25.75;;;13.68;;
35909;SDS011;22004;49.120;-0.200;2024-01-16T01:01:59;23.75;;;14.82;;
35909;SDS011;22004;49.120;-0.200;2024-01-16T01:04:24;22.27;;;13.48;;
35909;SDS011;22004;49.120;-0.200;2024-01-16T01:06:49;27.05;;;14.68;;
35909;SDS011;22004;49.120;-0.200;2024-01-16T01:09:15;25.65;;;14.50;;
35909;SDS011;22004;49.120;-0.200;2024-01-16T01:11:41;23.80;;;13.63;;
35909;SDS011;22004;49.120;-0.200;2024-01-16T01:14:07;26.10;;;14.40;;
35909;SDS011;22004;49.120;-0.200;2024-01-16T01:16:32;25.33;;;14.25;;
35909;SDS011;22004;49.120;-0.200;2024-01-16T01:18:58;24.23;;;14.52;;
35909;SDS011;22004;49.120;-0.200;2024-01-16T01:21:23;22.45;;;13.98;;
35909;SDS011;22004;49.120;-0.200;2024-01-16T01:23:49;24.42;;;14.05;;
35909;SDS011;22004;49.120;-0.200;2024-01-16T01:26:14;24.58;;;14.07;;
35909;SDS011;22004;49.120;-0.200;2024-01-16T01:28:40;22.33;;;14.10;;
35909;SDS011;22004;49.120;-0.200;2024-01-16T01:31:08;23.83;;;13.27;;
35909;SDS011;22004;49.120;-0.200;2024-01-16T01:33:34;24.95;;;13.85;;
35909;SDS011;22004;49.120;-0.200;2024-01-16T01:35:59;24.83;;;13.40;;
35909;SDS011;22004;49.120;-0.200;2024-01-16T01:38:24;25.75;;;14.13;;
35909;SDS011;22004;49.120;-0.200;2024-01-16T01:40:50;21.58;;;13.02;;
35909;SDS011;22004;49.120;-0.200;2024-01-16T01:43:21;23.83;;;13.73;;
35909;SDS011;22004;49.120;-0.200;2024-01-16T01:48:46;25.13;;;13.15;;
35909;SDS011;22004;49.120;-0.200;2024-01-16T01:51:17;22.15;;;14.05;;
35909;SDS011;22004;49.120;-0.200;2024-01-16T01:53:44;26.92;;;15.25;;
35909;SDS011;22004;49.120;-0.200;2024-01-16T01:56:11;25.08;;;13.75;;
35909;SDS011;22004;49.120;-0.200;2024-01-16T01:58:42;21.70;;;13.27;;
35909;SDS011;22004;49.120;-0.200;2024-01-16T02:01:09;22.77;;;12.95;;
35909;SDS011;22004;49.120;-0.200;2024-01-16T02:03:43;19.30;;;12.18;;
35909;SDS011;22004;49.120;-0.200;2024-01-16T02:06:12;21.75;;;13.32;;
35909;SDS011;22004;49.120;-0.200;2024-01-16T02:08:42;25.95;;;13.68;;
35909;SDS011;22004;49.120;-0.200;2024-01-16T02:11:09;21.58;;;12.90;;
35909;SDS011;22004;49.120;-0.200;2024-01-16T02:13:35;24.45;;;13.32;;
35909;SDS011;22004;49.120;-0.200;2024-01-16T02:16:00;21.27;;;13.00;;
35909;SDS011;22004;49.120;-0.200;2024-01-16T02:18:26;20.25;;;12.23;;
35909;SDS011;22004;49.120;-0.200;2024-01-16T02:20:52;22.38;;;12.60;;
35909;SDS011;22004;49.120;-0.200;2024-01-16T02:23:26;22.67;;;12.80;;
35909;SDS011;22004;49.120;-0.200;2024-01-16T02:25:52;22.77;;;12.45;;
35909;SDS011;22004;49.120;-0.200;2024-01-16T02:28:18;22.33;;;12.55;;
35909;SDS011;22004;49.120;-0.200;2024-01-16T02:30:44;21.42;;;12.13;;
35909;SDS011;22004;49.120;-0.200;2024-01-16T02:33:09;25.52;;;13.13;;
35909;SDS011;22004;49.120;-0.200;2024-01-16T02:35:34;21.45;;;12.90;;
35909;SDS011;22004;49.120;-0.200;2024-01-16T02:38:00;18.38;;;12.15;;
35909;SDS011;22004;49.120;-0.200;2024-01-16T02:40:26;19.50;;;12.40;;
35909;SDS011;22004;49.120;-0.200;2024-01-16T02:42:51;20.67;;;11.90;;
35909;SDS011;22004;49.120;-0.200;2024-01-16T02:45:17;21.45;;;12.77;;
35909;SDS011;22004;49.120;-0.200;2024-01-16T02:47:42;20.75;;;12.27;;
35909;SDS011;22004;49.120;-0.200;2024-01-16T02:50:08;23.40;;;13.27;;
35909;SDS011;22004;49.120;-0.200;2024-01-16T02:52:34;21.58;;;13.07;;
35909;SDS011;22004;49.120;-0.200;2024-01-16T02:55:00;18.52;;;12.02;;
35909;SDS011;22004;49.120;-0.200;2024-01-16T02:57:26;19.63;;;12.18;;
35909;SDS011;22004;49.120;-0.200;2024-01-16T02:59:51;21.75;;;12.35;;
35909;SDS011;22004;49.120;-0.200;2024-01-16T03:02:16;21.05;;;12.30;;
35909;SDS011;22004;49.120;-0.200;2024-01-16T03:04:42;20.08;;;12.40;;
35909;SDS011;22004;49.120;-0.200;2024-01-16T03:07:07;21.38;;;11.95;;
35909;SDS011;22004;49.120;-0.200;2024-01-16T03:09:33;17.40;;;11.07;;
35909;SDS011;22004;49.120;-0.200;2024-01-16T03:11:59;22.10;;;11.88;;
35909;SDS011;22004;49.120;-0.200;2024-01-16T03:14:24;20.55;;;12.32;;
35909;SDS011;22004;49.120;-0.200;2024-01-16T03:16:50;23.92;;;12.73;;
35909;SDS011;22004;49.120;-0.200;2024-01-16T03:19:15;19.98;;;12.18;;
35909;SDS011;22004;49.120;-0.200;2024-01-16T03:21:40;19.92;;;12.07;;
35909;SDS011;22004;49.120;-0.200;2024-01-16T03:24:06;22.83;;;12.93;;
35909;SDS011;22004;49.120;-0.200;2024-01-16T03:26:31;23.95;;;12.07;;
35909;SDS011;22004;49.120;-0.200;2024-01-16T03:28:57;21.70;;;13.18;;
35909;SDS011;22004;49.120;-0.200;2024-01-16T03:31:25;22.23;;;13.10;;
35909;SDS011;22004;49.120;-0.200;2024-01-16T03:33:51;19.23;;;12.13;;
35909;SDS011;22004;49.120;-0.200;2024-01-16T03:36:16;20.25;;;11.85;;
35909;SDS011;22004;49.120;-0.200;2024-01-16T03:38:42;20.45;;;12.10;;
35909;SDS011;22004;49.120;-0.200;2024-01-16T03:41:08;19.08;;;11.60;;
35909;SDS011;22004;49.120;-0.200;2024-01-16T03:43:35;19.48;;;12.10;;
35909;SDS011;22004;49.120;-0.200;2024-01-16T03:46:00;18.60;;;11.73;;
35909;SDS011;22004;49.120;-0.200;2024-01-16T03:48:26;20.55;;;11.30;;
35909;SDS011;22004;49.120;-0.200;2024-01-16T03:50:52;21.00;;;11.98;;
35909;SDS011;22004;49.120;-0.200;2024-01-16T03:53:19;22.95;;;12.45;;
35909;SDS011;22004;49.120;-0.200;2024-01-16T03:55:44;19.17;;;12.35;;
35909;SDS011;22004;49.120;-0.200;2024-01-16T03:58:10;21.48;;;12.35;;
35909;SDS011;22004;49.120;-0.200;2024-01-16T04:00:35;20.08;;;12.15;;
35909;SDS011;22004;49.120;-0.200;2024-01-16T04:03:00;20.90;;;12.10;;
35909;SDS011;22004;49.120;-0.200;2024-01-16T04:05:26;21.65;;;11.98;;
35909;SDS011;22004;49.120;-0.200;2024-01-16T04:07:51;20.92;;;11.60;;
35909;SDS011;22004;49.120;-0.200;2024-01-16T04:10:17;20.80;;;12.73;;
35909;SDS011;22004;49.120;-0.200;2024-01-16T04:12:42;21.42;;;12.15;;
35909;SDS011;22004;49.120;-0.200;2024-01-16T04:15:08;19.50;;;12.02;;
35909;SDS011;22004;49.120;-0.200;2024-01-16T04:17:33;19.38;;;12.18;;
35909;SDS011;22004;49.120;-0.200;2024-01-16T04:19:59;24.50;;;12.73;;
35909;SDS011;22004;49.120;-0.200;2024-01-16T04:22:24;18.77;;;12.23;;
35909;SDS011;22004;49.120;-0.200;2024-01-16T04:24:49;20.20;;;11.70;;
35909;SDS011;22004;49.120;-0.200;2024-01-16T04:27:15;24.70;;;12.48;;
35909;SDS011;22004;49.120;-0.200;2024-01-16T04:29:40;23.55;;;12.60;;
35909;SDS011;22004;49.120;-0.200;2024-01-16T04:32:08;17.65;;;11.30;;
35909;SDS011;22004;49.120;-0.200;2024-01-16T04:34:33;20.23;;;12.25;;
35909;SDS011;22004;49.120;-0.200;2024-01-16T04:36:59;23.00;;;12.40;;
35909;SDS011;22004;49.120;-0.200;2024-01-16T04:39:24;22.60;;;13.20;;
35909;SDS011;22004;49.120;-0.200;2024-01-16T04:41:50;23.70;;;13.07;;
35909;SDS011;22004;49.120;-0.200;2024-01-16T04:44:15;25.27;;;13.60;;
35909;SDS011;22004;49.120;-0.200;2024-01-16T04:46:40;23.83;;;12.95;;
35909;SDS011;22004;49.120;-0.200;2024-01-16T04:49:06;21.92;;;12.55;;
35909;SDS011;22004;49.120;-0.200;2024-01-16T04:51:31;24.70;;;13.45;;
35909;SDS011;22004;49.120;-0.200;2024-01-16T04:53:56;21.38;;;12.32;;
35909;SDS011;22004;49.120;-0.200;2024-01-16T04:56:22;22.50;;;12.88;;
35909;SDS011;22004;49.120;-0.200;2024-01-16T04:58:47;21.85;;;12.52;;
35909;SDS011;22004;49.120;-0.200;2024-01-16T05:01:12;22.27;;;12.85;;
35909;SDS011;22004;49.120;-0.200;2024-01-16T05:03:38;29.48;;;13.32;;
35909;SDS011;22004;49.120;-0.200;2024-01-16T05:06:03;24.45;;;13.35;;
35909;SDS011;22004;49.120;-0.200;2024-01-16T05:08:29;23.83;;;12.73;;
35909;SDS011;22004;49.120;-0.200;2024-01-16T05:10:55;20.65;;;11.65;;
35909;SDS011;22004;49.120;-0.200;2024-01-16T05:13:21;23.65;;;12.27;;
35909;SDS011;22004;49.120;-0.200;2024-01-16T05:15:46;20.08;;;11.63;;
35909;SDS011;22004;49.120;-0.200;2024-01-16T05:18:12;22.58;;;12.80;;
35909;SDS011;22004;49.120;-0.200;2024-01-16T05:20:37;18.92;;;11.85;;
35909;SDS011;22004;49.120;-0.200;2024-01-16T05:23:03;21.42;;;12.55;;
35909;SDS011;22004;49.120;-0.200;2024-01-16T05:25:28;21.58;;;11.95;;
35909;SDS011;22004;49.120;-0.200;2024-01-16T05:27:54;18.42;;;11.25;;
35909;SDS011;22004;49.120;-0.200;2024-01-16T05:30:19;21.00;;;11.75;;
35909;SDS011;22004;49.120;-0.200;2024-01-16T05:32:44;23.63;;;12.30;;
35909;SDS011;22004;49.120;-0.200;2024-01-16T05:35:10;18.58;;;10.68;;
35909;SDS011;22004;49.120;-0.200;2024-01-16T05:37:35;18.17;;;11.13;;
35909;SDS011;22004;49.120;-0.200;2024-01-16T05:40:01;19.42;;;11.68;;
35909;SDS011;22004;49.120;-0.200;2024-01-16T05:42:28;20.27;;;11.25;;
35909;SDS011;22004;49.120;-0.200;2024-01-16T05:44:54;16.48;;;10.25;;
35909;SDS011;22004;49.120;-0.200;2024-01-16T05:47:19;19.05;;;10.27;;
35909;SDS011;22004;49.120;-0.200;2024-01-16T05:49:44;17.13;;;10.50;;
35909;SDS011;22004;49.120;-0.200;2024-01-16T05:52:09;17.10;;;9.85;;
35909;SDS011;22004;49.120;-0.200;2024-01-16T05:54:35;16.40;;;10.02;;
35909;SDS011;22004;49.120;-0.200;2024-01-16T05:57:00;17.02;;;10.00;;
35909;SDS011;22004;49.120;-0.200;2024-01-16T05:59:26;18.33;;;9.68;;
35909;SDS011;22004;49.120;-0.200;2024-01-16T06:01:51;19.63;;;10.07;;
35909;SDS011;22004;49.120;-0.200;2024-01-16T06:04:16;17.05;;;9.57;;
35909;SDS011;22004;49.120;-0.200;2024-01-16T06:06:42;15.20;;;9.85;;
35909;SDS011;22004;49.120;-0.200;2024-01-16T06:09:12;17.75;;;9.82;;
35909;SDS011;22004;49.120;-0.200;2024-01-16T06:11:39;16.52;;;9.40;;
35909;SDS011;22004;49.120;-0.200;2024-01-16T06:14:06;19.15;;;9.73;;
35909;SDS011;22004;49.120;-0.200;2024-01-16T06:16:32;17.52;;;9.95;;
35909;SDS011;22004;49.120;-0.200;2024-01-16T06:18:57;18.15;;;9.82;;
35909;SDS011;22004;49.120;-0.200;2024-01-16T06:21:23;17.17;;;9.20;;
35909;SDS011;22004;49.120;-0.200;2024-01-16T06:23:48;16.23;;;9.25;;
35909;SDS011;22004;49.120;-0.200;2024-01-16T06:26:14;15.90;;;9.35;;
35909;SDS011;22004;49.120;-0.200;2024-01-16T06:28:40;13.70;;;8.50;;
35909;SDS011;22004;49.120;-0.200;2024-01-16T06:31:07;15.25;;;9.07;;
35909;SDS011;22004;49.120;-0.200;2024-01-16T06:33:33;17.55;;;9.07;;
35909;SDS011;22004;49.120;-0.200;2024-01-16T06:35:59;15.98;;;8.80;;
35909;SDS011;22004;49.120;-0.200;2024-01-16T06:38:24;16.42;;;9.43;;
35909;SDS011;22004;49.120;-0.200;2024-01-16T06:40:50;14.02;;;8.95;;
35909;SDS011;22004;49.120;-0.200;2024-01-16T06:43:15;16.60;;;9.75;;
35909;SDS011;22004;49.120;-0.200;2024-01-16T06:45:43;16.38;;;9.10;;
35909;SDS011;22004;49.120;-0.200;2024-01-16T06:48:09;20.10;;;9.82;;
35909;SDS011;22004;49.120;-0.200;2024-01-16T06:50:34;14.75;;;8.60;;
35909;SDS011;22004;49.120;-0.200;2024-01-16T06:53:00;15.73;;;9.10;;
35909;SDS011;22004;49.120;-0.200;2024-01-16T06:55:26;16.38;;;9.15;;
35909;SDS011;22004;49.120;-0.200;2024-01-16T06:57:51;15.55;;;9.45;;
35909;SDS011;22004;49.120;-0.200;2024-01-16T07:00:16;17.17;;;8.82;;
35909;SDS011;22004;49.120;-0.200;2024-01-16T07:02:42;14.02;;;8.30;;
35909;SDS011;22004;49.120;-0.200;2024-01-16T07:05:11;20.10;;;9.15;;
35909;SDS011;22004;49.120;-0.200;2024-01-16T07:07:36;14.95;;;8.57;;
35909;SDS011;22004;49.120;-0.200;2024-01-16T07:10:02;17.63;;;8.50;;
35909;SDS011;22004;49.120;-0.200;2024-01-16T07:12:27;17.90;;;8.52;;
35909;SDS011;22004;49.120;-0.200;2024-01-16T07:14:53;15.02;;;8.85;;
35909;SDS011;22004;49.120;-0.200;2024-01-16T07:17:18;19.17;;;8.77;;
35909;SDS011;22004;49.120;-0.200;2024-01-16T07:19:44;12.80;;;8.57;;
35909;SDS011;22004;49.120;-0.200;2024-01-16T07:22:09;14.75;;;8.00;;
35909;SDS011;22004;49.120;-0.200;2024-01-16T07:24:34;13.10;;;8.10;;
35909;SDS011;22004;49.120;-0.200;2024-01-16T07:27:00;17.35;;;9.40;;
35909;SDS011;22004;49.120;-0.200;2024-01-16T07:29:25;16.23;;;9.10;;
35909;SDS011;22004;49.120;-0.200;2024-01-16T07:31:50;16.42;;;9.00;;
35909;SDS011;22004;49.120;-0.200;2024-01-16T07:34:17;16.92;;;8.75;;
35909;SDS011;22004;49.120;-0.200;2024-01-16T07:36:46;15.43;;;9.00;;
35909;SDS011;22004;49.120;-0.200;2024-01-16T07:39:12;15.63;;;9.02;;
35909;SDS011;22004;49.120;-0.200;2024-01-16T07:41:37;15.90;;;8.65;;
35909;SDS011;22004;49.120;-0.200;2024-01-16T07:44:02;16.42;;;8.63;;
35909;SDS011;22004;49.120;-0.200;2024-01-16T07:46:28;16.20;;;8.60;;
35909;SDS011;22004;49.120;-0.200;2024-01-16T18:49:10;11.98;;;6.70;;
35909;SDS011;22004;49.120;-0.200;2024-01-16T18:51:39;12.10;;;6.72;;
35909;SDS011;22004;49.120;-0.200;2024-01-16T18:54:04;15.00;;;7.45;;
35909;SDS011;22004;49.120;-0.200;2024-01-16T18:56:31;16.20;;;6.85;;
35909;SDS011;22004;49.120;-0.200;2024-01-16T18:58:59;11.40;;;6.25;;
35909;SDS011;22004;49.120;-0.200;2024-01-16T19:01:25;12.57;;;6.65;;
35909;SDS011;22004;49.120;-0.200;2024-01-16T19:03:54;15.18;;;6.28;;
35909;SDS011;22004;49.120;-0.200;2024-01-16T19:06:25;12.07;;;6.00;;
35909;SDS011;22004;49.120;-0.200;2024-01-16T19:08:51;15.95;;;6.15;;
35909;SDS011;22004;49.120;-0.200;2024-01-16T19:11:16;9.98;;;6.07;;
35909;SDS011;22004;49.120;-0.200;2024-01-16T19:13:42;12.30;;;6.20;;
35909;SDS011;22004;49.120;-0.200;2024-01-16T19:16:08;12.93;;;6.03;;
35909;SDS011;22004;49.120;-0.200;2024-01-16T19:18:34;12.20;;;5.80;;
35909;SDS011;22004;49.120;-0.200;2024-01-16T19:21:00;9.65;;;5.72;;
35909;SDS011;22004;49.120;-0.200;2024-01-16T19:23:29;15.00;;;6.57;;
35909;SDS011;22004;49.120;-0.200;2024-01-16T19:25:56;12.20;;;6.28;;
35909;SDS011;22004;49.120;-0.200;2024-01-16T19:28:22;12.00;;;6.07;;
35909;SDS011;22004;49.120;-0.200;2024-01-16T19:30:47;13.95;;;6.30;;
35909;SDS011;22004;49.120;-0.200;2024-01-16T19:33:14;12.02;;;5.85;;
35909;SDS011;22004;49.120;-0.200;2024-01-16T19:35:40;10.35;;;5.85;;
35909;SDS011;22004;49.120;-0.200;2024-01-16T19:38:05;12.80;;;6.53;;
35909;SDS011;22004;49.120;-0.200;2024-01-16T19:40:31;12.05;;;6.72;;
35909;SDS011;22004;49.120;-0.200;2024-01-16T19:42:56;10.40;;;5.63;;
35909;SDS011;22004;49.120;-0.200;2024-01-16T19:45:27;11.65;;;5.78;;
35909;SDS011;22004;49.120;-0.200;2024-01-16T19:47:52;12.18;;;5.68;;
35909;SDS011;22004;49.120;-0.200;2024-01-16T19:50:18;11.25;;;5.97;;
35909;SDS011;22004;49.120;-0.200;2024-01-16T19:52:46;11.90;;;5.45;;
35909;SDS011;22004;49.120;-0.200;2024-01-16T19:55:15;13.50;;;5.68;;
35909;SDS011;22004;49.120;-0.200;2024-01-16T19:57:43;10.90;;;5.68;;
35909;SDS011;22004;49.120;-0.200;2024-01-16T20:00:11;9.65;;;5.45;;
35909;SDS011;22004;49.120;-0.200;2024-01-16T20:02:36;9.40;;;5.35;;
35909;SDS011;22004;49.120;-0.200;2024-01-16T20:05:02;12.32;;;5.43;;
35909;SDS011;22004;49.120;-0.200;2024-01-16T20:07:28;9.75;;;5.20;;
35909;SDS011;22004;49.120;-0.200;2024-01-16T20:09:54;13.45;;;5.03;;
35909;SDS011;22004;49.120;-0.200;2024-01-16T20:12:20;9.45;;;5.32;;
35909;SDS011;22004;49.120;-0.200;2024-01-16T20:14:46;9.82;;;5.20;;
35909;SDS011;22004;49.120;-0.200;2024-01-16T20:17:11;12.77;;;5.85;;
35909;SDS011;22004;49.120;-0.200;2024-01-16T20:19:37;12.10;;;5.53;;
35909;SDS011;22004;49.120;-0.200;2024-01-16T20:22:02;9.25;;;5.53;;
35909;SDS011;22004;49.120;-0.200;2024-01-16T20:24:28;11.05;;;5.32;;
35909;SDS011;22004;49.120;-0.200;2024-01-16T20:26:55;11.23;;;5.10;;
35909;SDS011;22004;49.120;-0.200;2024-01-16T20:29:23;11.30;;;5.15;;
35909;SDS011;22004;49.120;-0.200;2024-01-16T20:31:48;9.98;;;5.93;;
35909;SDS011;22004;49.120;-0.200;2024-01-16T20:34:13;17.38;;;7.70;;
35909;SDS011;22004;49.120;-0.200;2024-01-16T20:36:39;12.45;;;6.07;;
35909;SDS011;22004;49.120;-0.200;2024-01-16T20:39:08;9.63;;;4.95;;
35909;SDS011;22004;49.120;-0.200;2024-01-16T20:41:37;14.07;;;5.90;;
35909;SDS011;22004;49.120;-0.200;2024-01-16T20:44:04;15.70;;;6.80;;
35909;SDS011;22004;49.120;-0.200;2024-01-16T20:46:29;11.07;;;6.13;;
35909;SDS011;22004;49.120;-0.200;2024-01-16T20:48:55;10.32;;;5.78;;
35909;SDS011;22004;49.120;-0.200;2024-01-16T20:51:20;13.05;;;6.03;;
35909;SDS011;22004;49.120;-0.200;2024-01-16T20:53:46;11.30;;;6.07;;
35909;SDS011;22004;49.120;-0.200;2024-01-16T20:56:12;12.55;;;6.03;;
35909;SDS011;22004;49.120;-0.200;2024-01-16T20:58:37;13.02;;;7.22;;
35909;SDS011;22004;49.120;-0.200;2024-01-16T21:01:03;12.57;;;6.15;;
35909;SDS011;22004;49.120;-0.200;2024-01-16T21:03:28;15.13;;;6.10;;
35909;SDS011;22004;49.120;-0.200;2024-01-16T21:05:55;14.05;;;6.15;;
35909;SDS011;22004;49.120;-0.200;2024-01-16T21:08:21;11.43;;;5.75;;
35909;SDS011;22004;49.120;-0.200;2024-01-16T21:10:47;12.40;;;5.60;;
35909;SDS011;22004;49.120;-0.200;2024-01-16T21:13:12;12.95;;;5.82;;
35909;SDS011;22004;49.120;-0.200;2024-01-16T21:15:39;9.20;;;5.30;;
35909;SDS011;22004;49.120;-0.200;2024-01-16T21:18:05;10.45;;;6.00;;
35909;SDS011;22004;49.120;-0.200;2024-01-16T21:20:30;11.88;;;6.40;;
35909;SDS011;22004;49.120;-0.200;2024-01-16T21:22:55;11.85;;;5.63;;
35909;SDS011;22004;49.120;-0.200;2024-01-16T21:25:21;13.18;;;7.20;;
35909;SDS011;22004;49.120;-0.200;2024-01-16T21:27:49;11.95;;;6.80;;
35909;SDS011;22004;49.120;-0.200;2024-01-16T21:30:15;11.95;;;7.32;;
35909;SDS011;22004;49.120;-0.200;2024-01-16T21:32:40;11.48;;;6.57;;
35909;SDS011;22004;49.120;-0.200;2024-01-16T21:35:06;13.02;;;6.80;;
35909;SDS011;22004;49.120;-0.200;2024-01-16T21:37:34;11.52;;;6.75;;
35909;SDS011;22004;49.120;-0.200;2024-01-16T21:40:00;15.02;;;8.13;;
35909;SDS011;22004;49.120;-0.200;2024-01-16T21:42:25;13.05;;;7.57;;
35909;SDS011;22004;49.120;-0.200;2024-01-16T21:44:51;12.60;;;7.30;;
35909;SDS011;22004;49.120;-0.200;2024-01-16T21:47:17;11.65;;;7.03;;
35909;SDS011;22004;49.120;-0.200;2024-01-16T21:49:46;13.23;;;7.57;;
35909;SDS011;22004;49.120;-0.200;2024-01-16T21:52:11;13.23;;;7.18;;
35909;SDS011;22004;49.120;-0.200;2024-01-16T21:54:37;13.20;;;7.40;;
35909;SDS011;22004;49.120;-0.200;2024-01-16T21:57:02;12.40;;;7.20;;
35909;SDS011;22004;49.120;-0.200;2024-01-16T21:59:28;12.07;;;7.25;;
35909;SDS011;22004;49.120;-0.200;2024-01-16T22:01:53;12.95;;;7.40;;
35909;SDS011;22004;49.120;-0.200;2024-01-16T22:04:18;11.38;;;6.60;;
35909;SDS011;22004;49.120;-0.200;2024-01-16T22:06:44;13.57;;;7.40;;
35909;SDS011;22004;49.120;-0.200;2024-01-16T22:09:09;12.68;;;7.00;;
35909;SDS011;22004;49.120;-0.200;2024-01-16T22:11:39;13.52;;;7.25;;
35909;SDS011;22004;49.120;-0.200;2024-01-16T22:14:04;16.25;;;7.78;;
35909;SDS011;22004;49.120;-0.200;2024-01-16T22:16:32;13.20;;;7.35;;
35909;SDS011;22004;49.120;-0.200;2024-01-16T22:18:58;12.75;;;7.05;;
35909;SDS011;22004;49.120;-0.200;2024-01-16T22:21:25;11.95;;;7.05;;
35909;SDS011;22004;49.120;-0.200;2024-01-16T22:23:50;15.63;;;7.32;;
35909;SDS011;22004;49.120;-0.200;2024-01-16T22:26:16;11.85;;;7.18;;
35909;SDS011;22004;49.120;-0.200;2024-01-16T22:28:41;13.85;;;6.70;;
35909;SDS011;22004;49.120;-0.200;2024-01-16T22:31:09;10.90;;;6.43;;
35909;SDS011;22004;49.120;-0.200;2024-01-16T22:33:37;10.57;;;6.80;;
35909;SDS011;22004;49.120;-0.200;2024-01-16T22:36:03;10.60;;;7.05;;
35909;SDS011;22004;49.120;-0.200;2024-01-16T22:38:29;12.48;;;6.40;;
35909;SDS011;22004;49.120;-0.200;2024-01-16T22:40:54;13.68;;;7.38;;
35909;SDS011;22004;49.120;-0.200;2024-01-16T22:43:20;12.23;;;6.65;;
35909;SDS011;22004;49.120;-0.200;2024-01-16T22:45:46;11.95;;;6.45;;
35909;SDS011;22004;49.120;-0.200;2024-01-16T22:48:11;11.55;;;6.75;;
35909;SDS011;22004;49.120;-0.200;2024-01-16T22:50:38;17.20;;;7.20;;
35909;SDS011;22004;49.120;-0.200;2024-01-16T22:53:04;11.05;;;6.20;;
35909;SDS011;22004;49.120;-0.200;2024-01-16T22:55:31;12.43;;;7.28;;
35909;SDS011;22004;49.120;-0.200;2024-01-16T22:57:57;12.02;;;6.80;;
35909;SDS011;22004;49.120;-0.200;2024-01-16T23:00:22;11.07;;;6.75;;
35909;SDS011;22004;49.120;-0.200;2024-01-16T23:02:47;15.95;;;7.07;;
35909;SDS011;22004;49.120;-0.200;2024-01-16T23:05:14;10.00;;;6.55;;
35909;SDS011;22004;49.120;-0.200;2024-01-16T23:07:40;12.85;;;7.35;;
35909;SDS011;22004;49.120;-0.200;2024-01-16T23:10:09;13.30;;;6.55;;
35909;SDS011;22004;49.120;-0.200;2024-01-16T23:12:37;12.63;;;7.03;;
35909;SDS011;22004;49.120;-0.200;2024-01-16T23:15:02;10.20;;;6.53;;
35909;SDS011;22004;49.120;-0.200;2024-01-16T23:17:28;12.50;;;6.63;;
35909;SDS011;22004;49.120;-0.200;2024-01-16T23:19:54;11.60;;;6.22;;
35909;SDS011;22004;49.120;-0.200;2024-01-16T23:22:20;11.05;;;6.68;;
35909;SDS011;22004;49.120;-0.200;2024-01-16T23:24:45;8.80;;;6.05;;
35909;SDS011;22004;49.120;-0.200;2024-01-16T23:27:11;8.50;;;5.53;;
35909;SDS011;22004;49.120;-0.200;2024-01-16T23:29:36;11.60;;;6.45;;
35909;SDS011;22004;49.120;-0.200;2024-01-16T23:32:03;12.63;;;6.10;;
35909;SDS011;22004;49.120;-0.200;2024-01-16T23:34:28;14.30;;;6.35;;
35909;SDS011;22004;49.120;-0.200;2024-01-16T23:36:53;12.18;;;6.57;;
35909;SDS011;22004;49.120;-0.200;2024-01-16T23:39:19;11.55;;;6.00;;
35909;SDS011;22004;49.120;-0.200;2024-01-16T23:41:46;11.43;;;6.20;;
35909;SDS011;22004;49.120;-0.200;2024-01-16T23:44:12;13.68;;;7.20;;
35909;SDS011;22004;49.120;-0.200;2024-01-16T23:46:38;11.48;;;6.35;;
35909;SDS011;22004;49.120;-0.200;2024-01-16T23:49:04;11.68;;;6.20;;
35909;SDS011;22004;49.120;-0.200;2024-01-16T23:51:29;10.60;;;6.68;;
35909;SDS011;22004;49.120;-0.200;2024-01-16T23:53:56;9.32;;;6.57;;
